Time;durP1;ratioP1;P1;durP2;ratioP2;P2;SDS_P1;SDS_P2;PMS_P1;PMS_P2;Temp;Humidity;BMP_temperature;BMP_pressure;BME280_temperature;BME280_humidity;BME280_pressure;Samples;Min_cycle;Max_cycle;Signal;HPM_P1;HPM_P2
2022/07/29 00:01:26;;;;;;;3.03;1.23;;;20.00;99.90;;;;;;5054138;28;20182;-83
2022/07/29 00:03:53;;;;;;;2.17;1.50;;;20.10;99.90;;;;;;5035972;28;20284;-83
2022/07/29 00:06:20;;;;;;;3.20;1.25;;;20.00;99.90;;;;;;5036143;28;20195;-84
2022/07/29 00:08:46;;;;;;;2.17;0.90;;;20.10;99.90;;;;;;5043089;28;20261;-83
2022/07/29 00:11:12;;;;;;;8.68;1.30;;;20.20;99.90;;;;;;5043159;28;20234;-83
2022/07/29 00:13:38;;;;;;;7.30;1.00;;;20.20;99.90;;;;;;5043991;28;20175;-83
2022/07/29 00:16:03;;;;;;;5.47;1.15;;;20.00;99.90;;;;;;5045109;28;20194;-82
2022/07/29 00:18:29;;;;;;;2.67;1.30;;;20.00;99.90;;;;;;5062281;28;20508;-83
2022/07/29 00:20:55;;;;;;;3.10;1.30;;;20.00;99.90;;;;;;5044101;28;20166;-84
2022/07/29 00:23:20;;;;;;;7.05;1.40;;;19.90;99.90;;;;;;5042339;28;20202;-92
2022/07/29 00:25:46;;;;;;;3.42;1.15;;;19.80;99.90;;;;;;5038560;28;20277;-93
2022/07/29 00:28:12;;;;;;;5.03;1.55;;;19.60;99.90;;;;;;5038189;28;20171;-92
2022/07/29 00:30:37;;;;;;;6.65;1.50;;;19.80;99.90;;;;;;5055672;28;20686;-92
2022/07/29 00:33:03;;;;;;;2.13;1.00;;;19.80;99.90;;;;;;5055171;28;20252;-90
2022/07/29 00:35:43;;;;;;;1.10;0.80;;;19.70;99.90;;;;;;5054750;28;20163;-93
2022/07/29 00:38:13;;;;;;;7.32;1.15;;;19.60;99.90;;;;;;5057512;28;20218;-86
2022/07/29 00:40:39;;;;;;;5.82;1.63;;;19.80;99.90;;;;;;5040773;28;20542;-94
2022/07/29 00:43:05;;;;;;;5.28;1.50;;;19.80;99.90;;;;;;5058023;28;20160;-91
2022/07/29 00:45:31;;;;;;;2.17;1.30;;;19.70;99.90;;;;;;5040366;28;20159;-89
2022/07/29 00:47:56;;;;;;;1.77;1.15;;;19.70;99.90;;;;;;5040856;28;20199;-91
2022/07/29 00:50:23;;;;;;;4.32;1.27;;;19.70;99.90;;;;;;5058572;28;20167;-93
2022/07/29 00:52:49;;;;;;;1.20;1.10;;;19.70;99.90;;;;;;5040334;28;20170;-94
2022/07/29 00:55:16;;;;;;;4.20;1.55;;;19.50;99.90;;;;;;5061238;28;20164;-92
2022/07/29 00:57:43;;;;;;;1.75;1.20;;;19.70;99.90;;;;;;5039986;28;20207;-91
2022/07/29 01:00:12;;;;;;;3.05;1.05;;;19.40;99.90;;;;;;5040859;28;20189;-93
2022/07/29 01:02:38;;;;;;;2.83;0.98;;;19.40;99.90;;;;;;5042758;28;20155;-92
2022/07/29 01:05:29;;;;;;;2.17;1.20;;;19.50;99.90;;;;;;5046357;28;20183;-94
2022/07/29 01:07:58;;;;;;;1.92;1.30;;;19.60;99.90;;;;;;5046099;28;20163;-93
2022/07/29 01:10:26;;;;;;;7.13;1.30;;;19.60;99.90;;;;;;5061124;28;20187;-92
2022/07/29 01:12:57;;;;;;;1.95;1.00;;;19.50;99.90;;;;;;5045181;28;20171;-92
2022/07/29 01:15:24;;;;;;;6.65;1.40;;;19.50;99.90;;;;;;5031369;28;20183;-91
2022/07/29 01:18:12;;;;;;;14.57;1.20;;;19.30;99.90;;;;;;5048612;28;20207;-91
2022/07/29 01:21:07;;;;;;;5.30;0.95;;;19.40;99.90;;;;;;5039124;28;20259;-92
2022/07/29 01:24:11;;;;;;;2.10;1.10;;;19.40;99.90;;;;;;5035959;28;20203;-93
2022/07/29 01:26:52;;;;;;;2.78;1.13;;;19.30;99.90;;;;;;5035645;28;20234;-92
2022/07/29 01:29:29;;;;;;;2.13;0.90;;;19.60;99.90;;;;;;5053437;28;20164;-93
2022/07/29 01:32:01;;;;;;;3.20;1.60;;;19.60;99.90;;;;;;5052684;28;20219;-93
2022/07/29 01:34:40;;;;;;;1.05;0.93;;;19.70;99.90;;;;;;5053047;28;20170;-83
2022/07/29 01:37:12;;;;;;;4.20;1.33;;;19.70;99.90;;;;;;5035218;28;20191;-83
2022/07/29 01:39:39;;;;;;;5.65;1.30;;;19.60;99.90;;;;;;5035632;28;20176;-85
2022/07/29 01:42:23;;;;;;;2.00;1.27;;;19.50;99.90;;;;;;5035179;28;20634;-84
2022/07/29 01:45:00;;;;;;;1.70;1.15;;;19.40;99.90;;;;;;5052791;28;20632;-88
2022/07/29 01:47:36;;;;;;;4.22;1.33;;;19.40;99.90;;;;;;5035360;28;20258;-83
2022/07/29 01:50:07;;;;;;;4.68;1.27;;;19.20;99.90;;;;;;5035549;28;20650;-89
2022/07/29 01:52:54;;;;;;;3.45;1.77;;;19.30;99.90;;;;;;5037996;28;20198;-91
2022/07/29 01:55:25;;;;;;;3.35;1.63;;;19.10;99.90;;;;;;5039270;28;20174;-92
2022/07/29 01:57:51;;;;;;;2.00;1.08;;;19.10;99.90;;;;;;5076828;28;20195;-82
2022/07/29 02:00:17;;;;;;;3.22;1.35;;;18.80;99.90;;;;;;5062773;28;20172;-85
2022/07/29 02:02:45;;;;;;;3.83;1.30;;;19.00;99.90;;;;;;5074468;28;20262;-92
2022/07/29 02:05:15;;;;;;;5.45;1.40;;;19.00;99.90;;;;;;5038507;28;20171;-89
2022/07/29 02:07:42;;;;;;;3.95;1.05;;;18.90;99.90;;;;;;5037953;28;20269;-87
2022/07/29 02:10:12;;;;;;;2.33;1.50;;;18.80;99.90;;;;;;5036864;28;20186;-81
2022/07/29 02:12:40;;;;;;;6.03;1.33;;;18.60;99.90;;;;;;5037190;28;20206;-82
2022/07/29 02:15:07;;;;;;;3.08;1.25;;;18.50;99.90;;;;;;5036976;28;20167;-85
2022/07/29 02:17:39;;;;;;;1.60;1.10;;;18.50;99.90;;;;;;5036876;28;20195;-82
2022/07/29 02:20:06;;;;;;;3.53;1.40;;;18.70;99.90;;;;;;5054864;28;20190;-82
2022/07/29 02:22:35;;;;;;;2.67;1.20;;;18.70;99.90;;;;;;5054417;28;20182;-83
2022/07/29 02:25:01;;;;;;;4.55;1.20;;;18.50;99.90;;;;;;5054957;28;20171;-83
2022/07/29 02:27:29;;;;;;;3.40;1.00;;;18.50;99.90;;;;;;5036799;28;20191;-85
2022/07/29 02:29:57;;;;;;;2.28;1.10;;;18.50;99.90;;;;;;5036887;28;20666;-83
2022/07/29 02:32:25;;;;;;;1.10;1.00;;;18.50;99.90;;;;;;5036867;28;20211;-82
2022/07/29 02:34:52;;;;;;;6.35;1.33;;;18.60;99.90;;;;;;5036638;28;20250;-83
2022/07/29 02:37:18;;;;;;;6.43;1.27;;;18.80;99.90;;;;;;5036157;28;20273;-83
2022/07/29 02:39:46;;;;;;;9.63;1.17;;;18.80;99.90;;;;;;5054111;28;20504;-83
2022/07/29 02:42:16;;;;;;;2.22;1.10;;;19.00;99.90;;;;;;5036362;28;20195;-83
2022/07/29 02:44:42;;;;;;;15.63;2.03;;;19.10;99.90;;;;;;5036586;28;20167;-82
2022/07/29 02:47:24;;;;;;;4.20;1.33;;;19.20;99.90;;;;;;5036276;28;20244;-82
2022/07/29 02:50:08;;;;;;;4.60;1.50;;;19.00;99.90;;;;;;5036320;28;20175;-82
2022/07/29 02:52:52;;;;;;;4.10;1.50;;;18.90;99.90;;;;;;5036302;28;20202;-82
2022/07/29 02:55:36;;;;;;;2.03;1.15;;;18.80;99.90;;;;;;5036417;28;20167;-82
2022/07/29 02:58:07;;;;;;;1.65;0.95;;;18.60;99.90;;;;;;5035843;28;20186;-82
2022/07/29 03:00:37;;;;;;;6.65;1.73;;;18.60;99.90;;;;;;5036138;28;20167;-82
2022/07/29 03:03:08;;;;;;;4.28;1.48;;;18.50;99.90;;;;;;5053126;28;20197;-82
2022/07/29 03:05:35;;;;;;;6.20;1.45;;;18.50;99.90;;;;;;5053566;28;20233;-82
2022/07/29 03:08:04;;;;;;;6.32;1.30;;;18.40;99.90;;;;;;5035489;28;20174;-82
2022/07/29 03:10:31;;;;;;;5.72;1.48;;;18.50;99.90;;;;;;5055442;28;20183;-82
2022/07/29 03:13:01;;;;;;;3.10;1.35;;;18.50;99.90;;;;;;5040916;28;20531;-82
2022/07/29 03:15:27;;;;;;;3.70;1.48;;;18.40;99.90;;;;;;5040977;28;20171;-83
2022/07/29 03:17:53;;;;;;;2.58;1.52;;;18.20;99.90;;;;;;5059223;28;20716;-81
2022/07/29 03:20:19;;;;;;;7.35;1.70;;;18.20;99.90;;;;;;5038108;28;20549;-82
2022/07/29 03:22:48;;;;;;;5.57;1.88;;;18.30;99.90;;;;;;5050722;22;20147;-78
2022/07/29 03:25:16;;;;;;;6.38;1.60;;;18.40;99.90;;;;;;5034080;28;20255;-79
2022/07/29 03:27:42;;;;;;;4.80;1.30;;;18.20;99.90;;;;;;5033717;28;20184;-78
2022/07/29 03:30:10;;;;;;;3.83;1.80;;;18.10;99.90;;;;;;5033118;28;20263;-78
2022/07/29 03:32:36;;;;;;;4.97;1.58;;;18.20;99.90;;;;;;5032612;28;20215;-78
2022/07/29 03:35:02;;;;;;;6.95;2.10;;;18.30;99.90;;;;;;5033566;28;20167;-81
2022/07/29 03:37:30;;;;;;;3.10;1.45;;;18.30;99.90;;;;;;5033174;28;20226;-79
2022/07/29 03:39:57;;;;;;;3.40;1.90;;;17.90;99.90;;;;;;5033206;28;20160;-79
2022/07/29 03:42:25;;;;;;;4.63;1.80;;;17.80;99.90;;;;;;5033167;28;20167;-79
2022/07/29 03:44:52;;;;;;;4.93;1.77;;;17.80;99.90;;;;;;5033874;28;20167;-80
2022/07/29 03:47:22;;;;;;;2.80;1.80;;;17.80;99.90;;;;;;5033711;28;20226;-79
2022/07/29 03:49:50;;;;;;;9.45;1.98;;;17.90;99.90;;;;;;5033861;28;20164;-79
2022/07/29 03:52:16;;;;;;;6.57;1.45;;;18.10;99.90;;;;;;5033382;28;20196;-79
2022/07/29 03:54:42;;;;;;;4.20;1.65;;;18.20;99.90;;;;;;5015555;28;20507;-79
2022/07/29 03:57:10;;;;;;;11.70;1.60;;;18.20;99.90;;;;;;5033370;28;20201;-79
2022/07/29 03:59:37;;;;;;;7.43;2.15;;;18.20;99.90;;;;;;5033442;28;20160;-78
2022/07/29 04:02:05;;;;;;;2.90;2.10;;;18.30;99.90;;;;;;5033245;28;20647;-80
2022/07/29 04:04:37;;;;;;;2.08;1.60;;;18.10;99.90;;;;;;5033357;28;20160;-80
2022/07/29 04:07:03;;;;;;;5.78;1.83;;;17.90;99.90;;;;;;5032944;28;20217;-79
2022/07/29 04:09:29;;;;;;;1.60;1.48;;;17.90;99.90;;;;;;5032940;28;20168;-80
2022/07/29 04:11:55;;;;;;;2.17;1.88;;;18.00;99.90;;;;;;5032923;28;20648;-79
2022/07/29 04:14:20;;;;;;;4.30;2.03;;;18.20;99.90;;;;;;5032881;28;20227;-79
2022/07/29 04:16:46;;;;;;;6.72;2.40;;;18.20;99.90;;;;;;5032662;28;20228;-79
2022/07/29 04:19:12;;;;;;;12.95;2.42;;;18.20;99.90;;;;;;5033001;28;20492;-80
2022/07/29 04:21:39;;;;;;;11.77;2.30;;;18.30;99.90;;;;;;5032475;28;20533;-84
2022/07/29 04:24:05;;;;;;;3.28;1.90;;;18.30;99.90;;;;;;5032537;28;20180;-79
2022/07/29 04:26:31;;;;;;;5.10;2.38;;;18.30;99.90;;;;;;5032612;28;20606;-79
2022/07/29 04:28:57;;;;;;;2.42;2.10;;;18.40;99.90;;;;;;5032601;28;20164;-81
2022/07/29 04:31:22;;;;;;;3.35;1.92;;;18.10;99.90;;;;;;5032444;28;20226;-81
2022/07/29 04:33:48;;;;;;;4.28;2.47;;;18.10;99.90;;;;;;5015119;28;20258;-80
2022/07/29 04:36:14;;;;;;;1.98;1.77;;;18.10;99.90;;;;;;5032464;28;20249;-80
2022/07/29 04:38:39;;;;;;;16.30;1.85;;;18.20;99.90;;;;;;5032595;28;20620;-78
2022/07/29 04:41:06;;;;;;;8.15;2.20;;;18.00;99.90;;;;;;5032398;28;20178;-78
2022/07/29 04:43:33;;;;;;;2.63;1.80;;;18.00;99.90;;;;;;5032311;28;20171;-79
2022/07/29 04:45:59;;;;;;;4.30;2.33;;;18.10;99.90;;;;;;5032074;28;20275;-79
2022/07/29 04:48:25;;;;;;;10.82;2.15;;;18.10;99.90;;;;;;5031907;28;20227;-80
2022/07/29 04:50:51;;;;;;;5.97;2.00;;;18.00;99.90;;;;;;5031851;28;20743;-79
2022/07/29 04:53:17;;;;;;;15.05;2.50;;;17.90;99.90;;;;;;5032430;28;20176;-79
2022/07/29 04:55:43;;;;;;;7.78;2.55;;;18.10;99.90;;;;;;5014703;28;20168;-79
2022/07/29 04:58:08;;;;;;;5.03;1.55;;;18.10;99.90;;;;;;5032440;28;20182;-79
2022/07/29 05:00:34;;;;;;;2.67;1.77;;;18.10;99.90;;;;;;5032265;28;20171;-79
2022/07/29 05:03:00;;;;;;;10.27;1.90;;;18.00;99.90;;;;;;5014620;28;20512;-79
2022/07/29 05:05:25;;;;;;;8.57;1.75;;;18.20;99.90;;;;;;5014580;28;20200;-79
2022/07/29 05:07:52;;;;;;;5.65;2.05;;;18.50;99.90;;;;;;5032044;28;20192;-80
2022/07/29 05:10:18;;;;;;;4.10;2.08;;;18.40;99.90;;;;;;5032123;28;20199;-80
2022/07/29 05:12:43;;;;;;;11.45;2.33;;;18.30;99.90;;;;;;5032220;28;20638;-79
2022/07/29 05:15:09;;;;;;;2.58;1.80;;;18.50;99.90;;;;;;5032109;28;20172;-79
2022/07/29 05:17:35;;;;;;;7.30;1.73;;;18.40;99.90;;;;;;5031840;28;20195;-79
2022/07/29 05:20:00;;;;;;;3.30;1.70;;;18.40;99.90;;;;;;5031900;28;20524;-80
2022/07/29 05:22:26;;;;;;;13.45;2.03;;;18.40;99.90;;;;;;5031714;28;20620;-79
2022/07/29 05:24:52;;;;;;;9.15;2.03;;;18.70;99.90;;;;;;5032370;28;20626;-79
2022/07/29 05:27:17;;;;;;;7.88;1.90;;;18.90;99.90;;;;;;5035795;28;20241;-80
2022/07/29 05:29:44;;;;;;;6.15;1.85;;;19.00;99.90;;;;;;5035791;28;20536;-79
2022/07/29 05:32:09;;;;;;;3.28;1.73;;;18.80;99.90;;;;;;5035430;28;20298;-80
2022/07/29 05:34:35;;;;;;;4.07;1.95;;;18.80;99.90;;;;;;5035234;28;20251;-81
2022/07/29 05:37:01;;;;;;;4.78;3.35;;;18.90;99.90;;;;;;5035417;28;20529;-80
2022/07/29 05:39:26;;;;;;;12.68;1.90;;;18.90;99.90;;;;;;5036532;28;20171;-78
2022/07/29 05:41:52;;;;;;;3.90;2.10;;;19.00;99.90;;;;;;5037833;28;20171;-78
2022/07/29 05:44:17;;;;;;;4.53;1.90;;;19.10;99.90;;;;;;5037542;28;20699;-91
2022/07/29 05:46:43;;;;;;;2.83;2.53;;;19.20;99.90;;;;;;5036734;28;20555;-80
2022/07/29 05:49:08;;;;;;;6.93;1.83;;;19.20;99.90;;;;;;5018970;28;20183;-80
2022/07/29 05:51:34;;;;;;;1.88;1.70;;;19.40;99.90;;;;;;5037762;28;20209;-79
2022/07/29 05:54:01;;;;;;;5.63;2.03;;;19.20;99.90;;;;;;5038404;28;20187;-79
2022/07/29 05:56:27;;;;;;;5.47;2.45;;;19.10;99.90;;;;;;5035978;28;20199;-79
2022/07/29 05:58:52;;;;;;;4.63;2.40;;;19.20;99.90;;;;;;5035496;28;20167;-79
2022/07/29 06:01:18;;;;;;;4.00;2.33;;;19.20;99.90;;;;;;5035674;28;20203;-81
2022/07/29 06:03:44;;;;;;;5.78;2.00;;;19.30;99.90;;;;;;5035327;28;20639;-79
2022/07/29 06:06:10;;;;;;;3.10;2.17;;;19.60;99.90;;;;;;5034906;28;20195;-79
2022/07/29 06:08:36;;;;;;;11.85;2.65;;;19.70;99.90;;;;;;5035526;28;20176;-92
2022/07/29 06:11:03;;;;;;;10.90;2.40;;;19.70;99.90;;;;;;5035516;28;20203;-90
2022/07/29 06:13:29;;;;;;;2.42;2.00;;;19.80;99.90;;;;;;5035734;28;20217;-80
2022/07/29 06:15:54;;;;;;;21.55;3.45;;;19.60;99.90;;;;;;5036196;28;20191;-77
2022/07/29 06:18:23;;;;;;;5.13;2.60;;;19.60;99.90;;;;;;5035440;28;20171;-85
2022/07/29 06:20:50;;;;;;;5.55;2.22;;;19.90;99.90;;;;;;5034701;28;20641;-78
2022/07/29 06:23:16;;;;;;;13.20;2.83;;;20.00;99.90;;;;;;5034391;28;20202;-85
2022/07/29 06:25:42;;;;;;;4.75;2.13;;;20.00;99.90;;;;;;5034323;28;20172;-81
2022/07/29 06:28:08;;;;;;;3.67;2.85;;;20.40;99.90;;;;;;5034885;28;20160;-85
2022/07/29 06:30:33;;;;;;;8.48;2.08;;;20.60;99.90;;;;;;5035010;28;20172;-84
2022/07/29 06:33:00;;;;;;;6.28;2.60;;;20.50;99.90;;;;;;5034857;28;20580;-78
2022/07/29 06:35:25;;;;;;;6.00;2.70;;;20.60;99.90;;;;;;5034983;28;20164;-84
2022/07/29 06:37:51;;;;;;;17.83;2.38;;;20.30;99.90;;;;;;5034299;28;20230;-80
2022/07/29 06:43:01;;;;;;;4.38;2.10;;;20.20;99.90;;;;;;5034866;28;20234;-81
2022/07/29 06:45:27;;;;;;;8.93;2.30;;;20.40;99.90;;;;;;5034464;28;20163;-77
2022/07/29 06:47:53;;;;;;;4.93;2.47;;;20.50;99.90;;;;;;5033942;28;20229;-81
2022/07/29 06:50:18;;;;;;;2.70;2.50;;;20.80;99.90;;;;;;5034227;28;20243;-81
2022/07/29 06:52:44;;;;;;;4.15;2.47;;;20.80;99.90;;;;;;5033931;28;20573;-79
2022/07/29 06:55:10;;;;;;;6.28;1.85;;;20.90;99.90;;;;;;5033817;28;20175;-78
2022/07/29 06:57:35;;;;;;;11.80;2.50;;;21.30;99.90;;;;;;5033577;28;20227;-81
2022/07/29 07:00:01;;;;;;;2.42;2.20;;;21.80;99.90;;;;;;5034846;28;20621;-89
2022/07/29 07:02:34;;;;;;;3.08;2.40;;;21.70;99.90;;;;;;5035220;28;20218;-93
2022/07/29 07:05:00;;;;;;;5.35;2.28;;;21.90;99.90;;;;;;5034474;28;20612;-82
2022/07/29 07:07:25;;;;;;;6.03;2.00;;;21.90;99.90;;;;;;5034354;28;20285;-84
2022/07/29 07:09:51;;;;;;;7.00;2.30;;;22.20;99.90;;;;;;5033900;28;20183;-91
2022/07/29 07:12:17;;;;;;;7.25;2.20;;;22.40;99.90;;;;;;5016036;28;20207;-87
2022/07/29 07:14:42;;;;;;;6.40;2.33;;;22.40;99.90;;;;;;5015810;28;20218;-82
2022/07/29 07:17:08;;;;;;;5.47;2.33;;;22.40;99.90;;;;;;5033474;28;20191;-90
2022/07/29 07:19:34;;;;;;;13.75;2.33;;;22.40;99.90;;;;;;5032868;28;20188;-86
2022/07/29 07:21:59;;;;;;;4.82;2.13;;;22.10;99.90;;;;;;5016043;28;20214;-87
2022/07/29 07:24:25;;;;;;;6.78;1.98;;;22.00;99.90;;;;;;5032638;28;20587;-85
2022/07/29 07:26:51;;;;;;;2.00;1.83;;;22.40;99.90;;;;;;5015255;28;20191;-79
2022/07/29 07:29:16;;;;;;;6.90;1.83;;;23.10;99.90;;;;;;5035283;28;20175;-86
2022/07/29 07:31:42;;;;;;;7.68;2.50;;;24.00;99.90;;;;;;5034277;28;20268;-89
2022/07/29 07:34:08;;;;;;;2.08;1.50;;;24.20;99.90;;;;;;5033316;28;20156;-82
2022/07/29 07:36:33;;;;;;;6.70;1.80;;;25.20;99.90;;;;;;5031500;28;20199;-82
2022/07/29 07:38:59;;;;;;;2.80;1.77;;;26.10;99.90;;;;;;5015884;28;20233;-82
2022/07/29 07:41:25;;;;;;;4.90;1.88;;;26.80;99.90;;;;;;5033292;28;20190;-80
2022/07/29 07:43:50;;;;;;;4.32;1.50;;;27.80;99.90;;;;;;5033249;28;20274;-81
2022/07/29 07:46:16;;;;;;;2.63;2.10;;;26.80;99.90;;;;;;5032410;28;20198;-80
2022/07/29 07:48:42;;;;;;;2.58;1.88;;;27.00;99.90;;;;;;5032905;28;20160;-80
2022/07/29 07:51:07;;;;;;;2.88;1.40;;;27.20;99.90;;;;;;5034437;28;20196;-88
2022/07/29 07:53:34;;;;;;;2.88;2.03;;;27.20;99.90;;;;;;5035004;28;20636;-84
2022/07/29 08:04:04;;;;;;;11.52;2.25;;;24.50;99.90;;;;;;4118392;23;20368;-90
2022/07/29 08:06:29;;;;;;;2.35;1.77;;;24.10;99.90;;;;;;5053969;28;20174;-89
2022/07/29 08:08:55;;;;;;;3.65;2.03;;;24.10;99.90;;;;;;5036494;28;20183;-88
2022/07/29 08:11:21;;;;;;;3.20;2.03;;;24.10;99.90;;;;;;5036077;28;20203;-88
2022/07/29 08:13:47;;;;;;;11.10;1.90;;;23.70;99.90;;;;;;5036485;28;20176;-91
2022/07/29 08:16:12;;;;;;;4.15;1.80;;;23.10;99.90;;;;;;5035937;28;20195;-90
2022/07/29 08:18:39;;;;;;;3.38;1.55;;;23.20;99.90;;;;;;5035918;28;20262;-88
2022/07/29 08:21:06;;;;;;;4.18;1.70;;;23.30;99.90;;;;;;5035871;28;20286;-88
2022/07/29 08:23:38;;;;;;;5.43;2.15;;;23.60;99.90;;;;;;5036835;28;20241;-90
2022/07/29 08:26:12;;;;;;;3.42;1.75;;;23.60;99.90;;;;;;5036469;28;20198;-88
2022/07/29 08:28:39;;;;;;;2.78;1.77;;;23.60;99.90;;;;;;5036341;28;20190;-88
2022/07/29 08:31:05;;;;;;;7.28;1.70;;;23.60;99.90;;;;;;5036742;28;20267;-88
2022/07/29 08:33:31;;;;;;;3.78;1.73;;;23.60;99.90;;;;;;5036335;28;20225;-88
2022/07/29 08:35:57;;;;;;;2.75;1.63;;;23.70;99.90;;;;;;5036959;28;20170;-93
2022/07/29 08:38:23;;;;;;;3.67;1.63;;;23.70;99.90;;;;;;5037538;28;20187;-91
2022/07/29 08:40:49;;;;;;;3.97;1.77;;;23.60;99.90;;;;;;5020808;28;20213;-91
2022/07/29 08:43:14;;;;;;;6.43;1.45;;;23.80;99.90;;;;;;5036141;28;20163;-93
2022/07/29 08:45:48;;;;;;;5.47;1.85;;;24.00;99.90;;;;;;5036973;28;20471;-91
2022/07/29 08:48:20;;;;;;;2.10;1.73;;;24.00;99.90;;;;;;5036900;28;20228;-93
2022/07/29 08:50:47;;;;;;;5.20;1.88;;;23.90;99.90;;;;;;5036018;28;20174;-91
2022/07/29 08:53:17;;;;;;;5.18;1.73;;;23.60;99.90;;;;;;5036483;28;20519;-90
2022/07/29 08:55:47;;;;;;;10.05;1.80;;;23.80;99.90;;;;;;5036283;28;20224;-90
2022/07/29 08:58:14;;;;;;;2.13;1.92;;;23.90;99.90;;;;;;5036136;28;20534;-89
2022/07/29 09:00:45;;;;;;;3.58;1.52;;;24.00;99.90;;;;;;5038263;28;20167;-89
2022/07/29 09:03:17;;;;;;;2.80;1.65;;;24.10;99.90;;;;;;5040026;28;20240;-93
2022/07/29 09:05:45;;;;;;;6.47;2.00;;;24.10;99.90;;;;;;5057382;28;20643;-92
2022/07/29 09:08:32;;;;;;;5.95;2.00;;;24.10;99.90;;;;;;5060345;28;20171;-86
2022/07/29 09:10:59;;;;;;;3.10;1.77;;;24.10;99.90;;;;;;5068533;28;20264;-94
2022/07/29 09:13:27;;;;;;;3.88;2.10;;;24.10;99.90;;;;;;5043505;28;20163;-93
2022/07/29 09:16:01;;;;;;;5.65;2.03;;;24.10;99.90;;;;;;5026779;28;20183;-89
2022/07/29 09:18:46;;;;;;;5.75;2.40;;;24.20;99.90;;;;;;5061665;28;20178;-88
2022/07/29 09:24:09;;;;;;;3.63;1.67;;;24.50;99.90;;;;;;5060598;28;20244;-91
2022/07/29 09:26:40;;;;;;;1.92;1.70;;;24.40;99.90;;;;;;5059682;28;20175;-89
2022/07/29 09:29:15;;;;;;;5.15;2.40;;;24.30;99.90;;;;;;5060739;28;20226;-89
2022/07/29 09:31:42;;;;;;;4.65;1.95;;;24.40;99.90;;;;;;5040605;28;20233;-89
2022/07/29 09:34:14;;;;;;;4.28;1.75;;;24.60;99.90;;;;;;5040885;28;20167;-89
2022/07/29 09:36:40;;;;;;;11.90;2.22;;;24.70;99.90;;;;;;5040368;28;20222;-89
2022/07/29 09:39:06;;;;;;;2.88;1.58;;;25.00;99.90;;;;;;5039765;28;20194;-89
2022/07/29 09:41:48;;;;;;;2.78;1.73;;;24.90;99.90;;;;;;5039348;28;20647;-88
2022/07/29 09:44:14;;;;;;;3.83;1.80;;;24.70;99.90;;;;;;5039437;28;20167;-89
2022/07/29 09:46:51;;;;;;;6.60;1.80;;;24.80;99.90;;;;;;5042440;28;20167;-88
2022/07/29 09:49:17;;;;;;;8.88;1.75;;;24.90;99.90;;;;;;5041291;28;20205;-86
2022/07/29 09:51:42;;;;;;;5.88;1.98;;;24.90;99.90;;;;;;5041638;28;20725;-88
2022/07/29 09:54:26;;;;;;;2.13;1.70;;;24.70;99.90;;;;;;5041488;28;20209;-87
2022/07/29 09:56:52;;;;;;;8.98;1.65;;;24.70;99.90;;;;;;5043182;28;20167;-88
2022/07/29 09:59:20;;;;;;;3.17;1.20;;;24.90;99.90;;;;;;5043138;28;20297;-88
2022/07/29 10:01:49;;;;;;;6.63;2.13;;;25.20;99.90;;;;;;5046796;28;20224;-88
2022/07/29 10:04:15;;;;;;;1.88;1.40;;;24.90;99.90;;;;;;5043174;28;20210;-87
2022/07/29 10:07:08;;;;;;;1.73;1.55;;;24.80;99.90;;;;;;5041714;28;20608;-85
2022/07/29 10:09:50;;;;;;;4.90;2.00;;;24.90;99.90;;;;;;5040522;28;20203;-83
2022/07/29 10:12:16;;;;;;;4.45;1.48;;;25.00;99.90;;;;;;5047654;28;20197;-84
2022/07/29 10:14:42;;;;;;;6.20;1.25;;;25.30;99.90;;;;;;5060005;28;20179;-85
2022/07/29 10:17:10;;;;;;;7.95;1.48;;;25.40;99.90;;;;;;5060288;28;20205;-85
2022/07/29 10:19:37;;;;;;;2.03;1.83;;;25.30;99.90;;;;;;5056647;28;20631;-86
2022/07/29 10:22:05;;;;;;;2.35;2.15;;;25.30;99.90;;;;;;5038253;28;20171;-85
2022/07/29 10:24:32;;;;;;;1.60;1.50;;;25.60;99.90;;;;;;5055814;28;20530;-84
2022/07/29 10:26:59;;;;;;;5.35;1.65;;;25.50;99.90;;;;;;5040133;28;20177;-86
2022/07/29 10:29:26;;;;;;;3.25;1.80;;;25.30;99.90;;;;;;5041452;28;20215;-84
2022/07/29 10:32:17;;;;;;;2.72;2.00;;;25.40;99.90;;;;;;5039466;28;20211;-83
2022/07/29 10:34:46;;;;;;;6.45;1.98;;;25.60;99.90;;;;;;5040179;28;20168;-85
2022/07/29 10:37:40;;;;;;;10.00;1.83;;;25.70;99.90;;;;;;5039665;28;20650;-84
2022/07/29 10:43:35;;;;;;;2.67;1.60;;;25.40;99.90;;;;;;5036360;28;20289;-84
2022/07/29 10:46:02;;;;;;;5.00;1.85;;;25.50;99.90;;;;;;5054979;28;20167;-83
2022/07/29 10:48:29;;;;;;;8.10;1.75;;;25.60;99.90;;;;;;5037572;28;20186;-83
2022/07/29 10:50:55;;;;;;;5.75;2.22;;;25.70;99.90;;;;;;5038687;28;20564;-84
2022/07/29 10:53:24;;;;;;;3.88;1.88;;;25.70;99.90;;;;;;5048830;28;20171;-84
2022/07/29 10:55:53;;;;;;;3.60;2.38;;;25.60;99.90;;;;;;5051150;28;20171;-83
2022/07/29 10:58:23;;;;;;;6.60;2.30;;;25.50;99.90;;;;;;5041390;28;20175;-84
2022/07/29 11:00:52;;;;;;;2.58;1.38;;;25.70;99.90;;;;;;5029340;28;20281;-84
2022/07/29 11:03:53;;;;;;;1.92;1.60;;;25.70;99.90;;;;;;5048706;28;20634;-84
2022/07/29 11:06:19;;;;;;;10.88;1.98;;;25.70;99.90;;;;;;5064425;28;20649;-85
2022/07/29 11:08:45;;;;;;;3.80;1.52;;;25.70;99.90;;;;;;5046078;28;20179;-85
2022/07/29 11:11:20;;;;;;;3.00;1.50;;;25.70;99.90;;;;;;5061161;28;20698;-84
2022/07/29 11:13:54;;;;;;;5.45;1.70;;;25.90;99.90;;;;;;5036976;28;20170;-84
2022/07/29 11:16:22;;;;;;;3.95;1.60;;;26.10;99.90;;;;;;5036853;28;20618;-84
2022/07/29 11:19:12;;;;;;;3.97;2.10;;;26.10;99.90;;;;;;5053675;28;20187;-85
2022/07/29 11:21:40;;;;;;;9.00;2.10;;;26.20;99.90;;;;;;5036507;28;20534;-90
2022/07/29 11:24:18;;;;;;;11.32;2.97;;;26.40;99.90;;;;;;5035473;28;20237;-84
2022/07/29 11:26:46;;;;;;;6.13;2.17;;;26.00;99.90;;;;;;5053927;28;20167;-85
2022/07/29 11:29:22;;;;;;;17.80;2.83;;;26.10;99.90;;;;;;5035669;28;20280;-84
2022/07/29 11:31:55;;;;;;;4.55;1.90;;;26.20;99.90;;;;;;5036086;28;20211;-86
2022/07/29 11:34:24;;;;;;;3.67;1.63;;;26.20;99.90;;;;;;5036053;28;20619;-84
2022/07/29 11:37:14;;;;;;;7.05;1.50;;;26.10;99.60;;;;;;5035562;28;20167;-84
2022/07/29 11:39:42;;;;;;;17.00;2.40;;;25.90;99.90;;;;;;5035828;28;20212;-85
2022/07/29 11:42:23;;;;;;;3.22;1.92;;;25.90;99.90;;;;;;5036238;28;20275;-84
2022/07/29 11:45:05;;;;;;;17.77;2.28;;;26.00;99.90;;;;;;5055559;28;20170;-90
2022/07/29 11:47:32;;;;;;;5.55;3.03;;;26.10;99.90;;;;;;5058827;28;20174;-84
2022/07/29 11:49:59;;;;;;;5.93;2.05;;;26.20;99.90;;;;;;5036389;28;20215;-84
2022/07/29 11:52:42;;;;;;;6.32;2.00;;;26.20;99.70;;;;;;5035600;28;20213;-85
2022/07/29 11:55:10;;;;;;;5.63;2.03;;;26.40;99.80;;;;;;5035908;28;20498;-85
2022/07/29 11:57:36;;;;;;;2.28;1.90;;;26.60;99.90;;;;;;5036395;28;20298;-86
2022/07/29 12:00:04;;;;;;;3.55;2.45;;;26.70;99.90;;;;;;5054696;28;20584;-85
2022/07/29 12:02:43;;;;;;;6.07;2.33;;;26.60;99.90;;;;;;5036006;28;20216;-84
2022/07/29 12:05:10;;;;;;;8.93;2.10;;;26.50;99.60;;;;;;5053683;28;20179;-85
2022/07/29 12:07:37;;;;;;;6.32;2.95;;;26.30;99.60;;;;;;5036076;28;20567;-85
2022/07/29 12:10:04;;;;;;;10.75;2.47;;;26.10;99.50;;;;;;5037049;28;20474;-85
2022/07/29 12:12:29;;;;;;;7.07;2.40;;;26.30;99.40;;;;;;5035426;28;20207;-85
2022/07/29 12:14:55;;;;;;;5.47;2.00;;;26.40;99.10;;;;;;5035465;28;20645;-85
2022/07/29 12:17:29;;;;;;;6.45;2.10;;;26.50;99.10;;;;;;5035171;28;20262;-85
2022/07/29 12:19:56;;;;;;;22.58;2.50;;;26.80;99.10;;;;;;5035277;28;20194;-84
2022/07/29 12:22:34;;;;;;;2.53;2.00;;;26.70;98.90;;;;;;5035120;28;20164;-84
2022/07/29 12:25:14;;;;;;;15.77;2.30;;;26.20;99.20;;;;;;5052706;28;20158;-84
2022/07/29 12:27:40;;;;;;;9.85;1.77;;;26.30;99.20;;;;;;5035159;28;20174;-86
2022/07/29 12:30:09;;;;;;;5.45;1.90;;;26.40;98.70;;;;;;5034750;28;20248;-85
2022/07/29 12:32:36;;;;;;;2.85;1.90;;;26.50;99.00;;;;;;5034835;28;20210;-84
2022/07/29 12:35:11;;;;;;;4.78;2.10;;;26.50;99.00;;;;;;5034942;28;20175;-85
2022/07/29 12:37:40;;;;;;;9.00;2.05;;;26.80;98.60;;;;;;5052396;28;20191;-85
2022/07/29 12:40:08;;;;;;;2.92;1.70;;;27.00;98.50;;;;;;5035633;28;20631;-85
2022/07/29 12:42:34;;;;;;;8.80;2.00;;;26.90;98.30;;;;;;5037184;28;20178;-85
2022/07/29 12:45:00;;;;;;;11.25;1.20;;;26.60;98.60;;;;;;5063510;28;20167;-85
2022/07/29 12:47:25;;;;;;;3.90;1.88;;;26.70;99.10;;;;;;5070845;28;20166;-85
2022/07/29 12:50:11;;;;;;;7.22;1.75;;;26.70;98.20;;;;;;5043207;28;20191;-85
2022/07/29 12:52:37;;;;;;;2.45;1.80;;;27.00;98.50;;;;;;5040854;28;20217;-84
2022/07/29 12:55:04;;;;;;;12.77;2.22;;;27.30;97.00;;;;;;5038989;28;21202;-85
2022/07/29 12:57:31;;;;;;;11.93;1.70;;;27.60;97.40;;;;;;5037259;28;20177;-87
2022/07/29 13:00:00;;;;;;;2.38;1.63;;;27.70;97.40;;;;;;5055130;28;20204;-85
2022/07/29 13:02:31;;;;;;;4.07;1.52;;;27.80;97.40;;;;;;5041739;28;20205;-83
2022/07/29 13:05:02;;;;;;;2.63;1.40;;;27.90;97.10;;;;;;5050886;28;20268;-86
2022/07/29 13:07:32;;;;;;;1.83;1.23;;;27.90;96.80;;;;;;5046991;28;20175;-85
2022/07/29 13:10:11;;;;;;;9.07;1.40;;;27.80;97.00;;;;;;5040655;28;20199;-86
2022/07/29 13:12:38;;;;;;;8.52;1.50;;;27.80;97.30;;;;;;5037817;28;20250;-85